Time;durP1;ratioP1;P1;durP2;ratioP2;P2;SDS_P1;SDS_P2;PMS_P1;PMS_P2;Temp;Humidity;BMP_temperature;BMP_pressure;BME280_temperature;BME280_humidity;BME280_pressure;Samples;Min_cycle;Max_cycle;Signal;HPM_P1;HPM_P2
2022/11/15 00:00:55;;;;;;;44.90;22.63;;;8.10;99.90;;;;;;4980133;28;20298;-72
2022/11/15 00:03:24;;;;;;;47.20;21.53;;;8.10;99.90;;;;;;4960773;28;20503;-72
2022/11/15 00:05:51;;;;;;;42.90;22.63;;;8.10;99.90;;;;;;4975790;28;20311;-72
2022/11/15 00:08:18;;;;;;;43.30;20.63;;;8.10;99.90;;;;;;4978059;28;20765;-72
2022/11/15 00:10:59;;;;;;;44.07;22.37;;;8.10;99.90;;;;;;4977945;28;20304;-72
2022/11/15 00:13:26;;;;;;;44.90;21.80;;;8.10;99.90;;;;;;4974721;28;20236;-72
2022/11/15 00:15:57;;;;;;;45.93;23.63;;;8.10;99.90;;;;;;4981278;28;20328;-72
2022/11/15 00:18:23;;;;;;;46.00;23.00;;;8.10;99.90;;;;;;4973843;28;20299;-71
2022/11/15 00:20:50;;;;;;;47.40;21.03;;;8.10;99.90;;;;;;4975494;28;20780;-71
2022/11/15 00:23:17;;;;;;;50.50;22.87;;;8.10;99.90;;;;;;4979249;28;20663;-71
2022/11/15 00:25:44;;;;;;;46.83;22.67;;;8.20;99.90;;;;;;4978950;28;20635;-71
2022/11/15 00:28:11;;;;;;;55.13;24.10;;;8.10;99.90;;;;;;4964312;28;20251;-70
2022/11/15 00:30:37;;;;;;;47.20;23.77;;;8.20;99.90;;;;;;4975820;28;20449;-71
2022/11/15 00:33:05;;;;;;;55.40;23.80;;;8.20;99.90;;;;;;4973793;28;20670;-72
2022/11/15 00:35:33;;;;;;;51.73;23.70;;;8.20;99.90;;;;;;4979615;28;20239;-72
2022/11/15 00:38:01;;;;;;;49.83;23.03;;;8.20;99.90;;;;;;4980892;28;20643;-72
2022/11/15 00:40:28;;;;;;;58.87;24.47;;;8.20;99.90;;;;;;4979810;28;20205;-71
2022/11/15 00:42:55;;;;;;;59.50;23.53;;;8.30;99.90;;;;;;4990461;28;20520;-72
2022/11/15 00:45:22;;;;;;;58.90;26.07;;;8.30;99.90;;;;;;4963565;28;21056;-72
2022/11/15 00:47:49;;;;;;;67.20;27.10;;;8.30;99.90;;;;;;4972922;28;20224;-72
2022/11/15 00:50:16;;;;;;;62.90;24.87;;;8.30;99.90;;;;;;4959361;28;20681;-71
2022/11/15 00:52:43;;;;;;;61.77;26.87;;;8.30;99.90;;;;;;4955668;28;20308;-71
2022/11/15 00:55:15;;;;;;;73.63;27.53;;;8.30;99.90;;;;;;4957941;28;20261;-72
2022/11/15 00:57:41;;;;;;;71.30;26.40;;;8.30;99.90;;;;;;4959888;28;20222;-72
2022/11/15 01:00:09;;;;;;;76.53;28.93;;;8.30;99.90;;;;;;4957961;28;20311;-71
2022/11/15 01:02:36;;;;;;;62.43;25.43;;;8.30;99.90;;;;;;4959228;28;20210;-72
2022/11/15 01:05:03;;;;;;;74.63;29.53;;;8.40;99.90;;;;;;4957596;28;20715;-72
2022/11/15 01:07:30;;;;;;;67.93;28.20;;;8.40;99.90;;;;;;4972070;28;20320;-73
2022/11/15 01:09:56;;;;;;;71.13;27.23;;;8.40;99.90;;;;;;4960635;28;20722;-71
2022/11/15 01:12:23;;;;;;;74.47;27.87;;;8.40;99.90;;;;;;4956959;28;20217;-71
2022/11/15 01:14:50;;;;;;;71.20;29.20;;;8.40;99.90;;;;;;4958893;28;20295;-71
2022/11/15 01:17:17;;;;;;;84.63;30.67;;;8.50;99.90;;;;;;4957592;28;20218;-73
2022/11/15 01:19:43;;;;;;;70.33;27.67;;;8.50;99.90;;;;;;4958110;28;20215;-72
2022/11/15 01:22:10;;;;;;;72.03;28.07;;;8.50;99.90;;;;;;4955286;28;20220;-71
2022/11/15 01:24:37;;;;;;;75.33;28.73;;;8.60;99.90;;;;;;4957280;28;20233;-71
2022/11/15 01:27:04;;;;;;;74.10;28.27;;;8.60;99.90;;;;;;4957767;28;20215;-71
2022/11/15 01:29:30;;;;;;;79.50;28.27;;;8.60;99.90;;;;;;4959938;28;20625;-71
2022/11/15 01:31:57;;;;;;;74.73;29.53;;;8.60;99.90;;;;;;4958688;28;20291;-70
2022/11/15 01:34:24;;;;;;;78.97;28.10;;;8.70;99.90;;;;;;4957944;28;20231;-71
2022/11/15 01:36:51;;;;;;;74.47;29.37;;;8.70;99.90;;;;;;4956602;28;20235;-71
2022/11/15 01:39:18;;;;;;;75.33;29.97;;;8.70;99.90;;;;;;4959700;28;20293;-71
2022/11/15 01:41:44;;;;;;;73.23;29.03;;;8.70;99.90;;;;;;4959162;28;20243;-71
2022/11/15 01:44:33;;;;;;;72.47;27.27;;;8.70;99.90;;;;;;4958815;28;20218;-72
2022/11/15 01:47:22;;;;;;;78.50;29.43;;;8.80;99.90;;;;;;4956105;28;20217;-71
2022/11/15 01:49:54;;;;;;;71.37;29.93;;;8.80;99.90;;;;;;4960107;28;20270;-73
2022/11/15 01:52:25;;;;;;;80.60;29.53;;;8.80;99.90;;;;;;4975690;28;20326;-71
2022/11/15 01:55:07;;;;;;;77.37;31.60;;;8.80;99.90;;;;;;4977357;28;20710;-72
2022/11/15 01:57:34;;;;;;;74.70;29.00;;;8.80;99.90;;;;;;4982613;28;20202;-71
2022/11/15 02:00:04;;;;;;;75.97;31.30;;;8.80;99.90;;;;;;4981056;28;20234;-71
2022/11/15 02:02:32;;;;;;;74.23;30.77;;;8.90;99.90;;;;;;4979176;28;20218;-72
2022/11/15 02:04:59;;;;;;;81.00;31.13;;;8.90;99.90;;;;;;4982897;28;20225;-71
2022/11/15 02:07:28;;;;;;;70.97;30.43;;;8.90;99.90;;;;;;4980336;28;20262;-70
2022/11/15 02:09:57;;;;;;;78.53;30.87;;;8.90;99.90;;;;;;4981785;28;20256;-72
2022/11/15 02:12:24;;;;;;;76.13;31.07;;;8.90;99.90;;;;;;4980620;28;20294;-71
2022/11/15 02:14:54;;;;;;;76.30;31.00;;;9.00;99.90;;;;;;4981211;28;20774;-72
2022/11/15 02:17:30;;;;;;;79.80;32.63;;;9.00;99.90;;;;;;4975877;28;20242;-71
2022/11/15 02:20:14;;;;;;;80.43;31.73;;;9.00;99.90;;;;;;4980960;28;20246;-71
2022/11/15 02:23:20;;;;;;;84.57;32.43;;;9.00;99.90;;;;;;4977009;28;20281;-71
2022/11/15 02:26:20;;;;;;;80.70;32.27;;;9.00;99.90;;;;;;4981733;28;20222;-71
2022/11/15 02:28:59;;;;;;;74.60;31.40;;;9.10;99.90;;;;;;4977723;28;20214;-70
2022/11/15 02:31:35;;;;;;;82.13;32.73;;;9.10;99.90;;;;;;4967443;28;20215;-70
2022/11/15 02:34:16;;;;;;;72.80;32.03;;;9.10;99.90;;;;;;4980071;28;20230;-71
2022/11/15 02:37:25;;;;;;;71.23;32.83;;;9.10;99.90;;;;;;4985954;28;20625;-70
2022/11/15 02:40:06;;;;;;;82.60;31.63;;;9.10;99.90;;;;;;4981259;28;20954;-71
2022/11/15 02:45:40;;;;;;;84.23;34.07;;;9.20;99.90;;;;;;4977637;28;20252;-72
2022/11/15 02:48:09;;;;;;;75.77;32.83;;;9.20;99.90;;;;;;4981824;28;20256;-70
2022/11/15 02:50:36;;;;;;;80.03;34.57;;;9.20;99.90;;;;;;4979535;28;20618;-70
2022/11/15 02:53:03;;;;;;;78.60;33.03;;;9.30;99.90;;;;;;4977573;28;20642;-73
2022/11/15 02:55:36;;;;;;;79.80;34.13;;;9.30;99.90;;;;;;4964554;28;20335;-71
2022/11/15 02:58:14;;;;;;;80.27;34.03;;;9.30;99.90;;;;;;4981306;28;20214;-71
2022/11/15 03:01:17;;;;;;;82.37;34.70;;;9.30;99.90;;;;;;4979230;28;20288;-71
2022/11/15 03:03:56;;;;;;;87.13;34.17;;;9.40;99.90;;;;;;4975278;28;20256;-71
2022/11/15 03:06:35;;;;;;;81.03;33.27;;;9.40;99.90;;;;;;4968162;28;20239;-71
2022/11/15 03:09:25;;;;;;;83.50;35.63;;;9.50;99.90;;;;;;4978863;28;20302;-71
2022/11/15 03:12:01;;;;;;;87.00;35.50;;;9.50;99.90;;;;;;4980822;28;20584;-72
2022/11/15 03:14:40;;;;;;;82.57;33.63;;;9.50;99.90;;;;;;4977511;28;20233;-72
2022/11/15 03:17:35;;;;;;;81.57;34.20;;;9.50;99.90;;;;;;4981535;28;20309;-72
2022/11/15 03:20:05;;;;;;;81.73;34.30;;;9.50;99.90;;;;;;4974976;28;20200;-71
2022/11/15 03:22:42;;;;;;;73.77;34.10;;;9.50;99.90;;;;;;4975118;28;20306;-72
2022/11/15 03:25:15;;;;;;;82.93;34.63;;;9.50;99.90;;;;;;4978734;28;20336;-72
2022/11/15 03:27:46;;;;;;;77.30;34.57;;;9.50;99.90;;;;;;4978547;28;20202;-72
2022/11/15 03:30:17;;;;;;;80.93;32.63;;;9.50;99.90;;;;;;4982157;28;20201;-72
2022/11/15 03:32:49;;;;;;;72.60;34.03;;;9.60;99.90;;;;;;4979080;28;20229;-72
2022/11/15 03:35:21;;;;;;;79.83;35.57;;;9.60;99.90;;;;;;4977604;28;20223;-71
2022/11/15 03:38:15;;;;;;;77.97;34.67;;;9.60;99.90;;;;;;4983421;28;20229;-72
2022/11/15 03:41:05;;;;;;;75.23;34.17;;;9.60;99.90;;;;;;4980500;28;20304;-72
2022/11/15 03:43:54;;;;;;;74.53;35.23;;;9.70;99.90;;;;;;4979986;28;20243;-70
2022/11/15 03:46:27;;;;;;;79.20;35.43;;;9.70;99.90;;;;;;4977024;28;20303;-72
2022/11/15 03:49:04;;;;;;;76.07;34.30;;;9.70;99.90;;;;;;4978778;28;20333;-72
2022/11/15 03:51:31;;;;;;;74.40;34.33;;;9.70;99.90;;;;;;4978608;28;20243;-71
2022/11/15 03:53:57;;;;;;;75.07;35.37;;;9.70;99.90;;;;;;4978890;28;20291;-72
2022/11/15 03:56:24;;;;;;;80.53;34.97;;;9.70;99.90;;;;;;4981422;28;20225;-71
2022/11/15 03:58:51;;;;;;;75.63;33.20;;;9.80;99.90;;;;;;4976990;28;20234;-71
2022/11/15 04:01:18;;;;;;;74.93;34.80;;;9.90;99.90;;;;;;4980935;28;20299;-71
2022/11/15 04:03:45;;;;;;;72.27;34.07;;;9.80;99.90;;;;;;4976893;28;20215;-71
2022/11/15 04:06:11;;;;;;;76.40;36.07;;;9.80;99.90;;;;;;4979418;28;20228;-71
2022/11/15 04:08:38;;;;;;;74.10;34.37;;;9.90;99.90;;;;;;4963265;28;20297;-71
2022/11/15 04:11:05;;;;;;;75.87;33.83;;;9.90;99.90;;;;;;4977019;28;20210;-71
2022/11/15 04:13:32;;;;;;;75.77;34.13;;;9.90;99.90;;;;;;4975048;28;20218;-69
2022/11/15 04:15:59;;;;;;;73.50;33.97;;;10.00;99.90;;;;;;4947134;28;20235;-71
2022/11/15 04:18:26;;;;;;;74.57;34.23;;;10.00;99.90;;;;;;4980637;28;20204;-71
2022/11/15 04:24:12;;;;;;;74.83;33.50;;;10.00;99.90;;;;;;4974802;28;20210;-72
2022/11/15 04:26:31;;;;;;;78.37;34.60;;;10.10;99.90;;;;;;4976194;28;20212;-71
2022/11/15 04:31:43;;;;;;;81.67;34.90;;;10.00;99.90;;;;;;4982795;28;20220;-71
2022/11/15 04:34:10;;;;;;;77.73;33.73;;;10.20;99.90;;;;;;4985773;28;20211;-71
2022/11/15 04:39:23;;;;;;;75.83;33.83;;;;;;;;;;4978683;28;20405;-71
2022/11/15 04:41:50;;;;;;;75.90;32.27;;;10.30;99.90;;;;;;4979416;28;20330;-71
2022/11/15 04:44:16;;;;;;;70.77;34.13;;;10.40;99.90;;;;;;4974895;28;20267;-72
2022/11/15 04:46:43;;;;;;;78.83;33.90;;;10.40;99.90;;;;;;4977928;28;20208;-70
2022/11/15 04:49:10;;;;;;;81.20;34.13;;;10.50;99.90;;;;;;4977171;28;20203;-71
2022/11/15 04:51:37;;;;;;;80.20;34.67;;;10.50;99.90;;;;;;4979385;28;20242;-72
2022/11/15 04:54:04;;;;;;;72.07;32.20;;;10.50;99.90;;;;;;4977376;28;20748;-72
2022/11/15 04:56:30;;;;;;;77.57;34.77;;;10.50;99.90;;;;;;4977620;28;20719;-70
2022/11/15 04:58:57;;;;;;;82.93;34.03;;;10.60;99.90;;;;;;4980898;28;20263;-71
2022/11/15 05:01:24;;;;;;;84.10;34.43;;;10.60;99.90;;;;;;4976399;28;20646;-71
2022/11/15 05:06:36;;;;;;;78.80;33.97;;;10.70;99.90;;;;;;4966138;28;20222;-71
2022/11/15 05:09:03;;;;;;;78.37;34.77;;;10.70;99.90;;;;;;4977488;28;20274;-71
2022/11/15 05:11:30;;;;;;;74.97;33.37;;;10.70;99.90;;;;;;4978408;28;20221;-71
2022/11/15 05:14:00;;;;;;;76.17;33.73;;;10.70;99.90;;;;;;4977984;28;20676;-71
2022/11/15 05:16:27;;;;;;;75.43;33.50;;;10.80;99.90;;;;;;4978496;28;20243;-71
2022/11/15 05:18:54;;;;;;;73.57;33.33;;;10.80;99.90;;;;;;4976846;28;20297;-71
2022/11/15 05:21:22;;;;;;;72.80;34.43;;;10.80;99.90;;;;;;4976884;28;20219;-71
2022/11/15 05:23:49;;;;;;;72.93;32.30;;;10.80;99.90;;;;;;4980603;28;20238;-70
2022/11/15 05:26:17;;;;;;;73.20;32.73;;;10.80;99.90;;;;;;4964184;28;20250;-71
2022/11/15 05:28:44;;;;;;;82.53;33.70;;;10.80;99.90;;;;;;4982956;28;20242;-72
2022/11/15 05:31:13;;;;;;;75.73;32.70;;;10.90;99.90;;;;;;4982763;28;20210;-71
2022/11/15 05:33:41;;;;;;;80.40;33.93;;;10.90;99.90;;;;;;4980158;28;20325;-71
2022/11/15 05:36:11;;;;;;;78.57;33.67;;;10.90;99.90;;;;;;4985199;28;20257;-70
2022/11/15 05:38:38;;;;;;;67.40;32.47;;;10.90;99.90;;;;;;4986595;28;20559;-71
2022/11/15 05:41:05;;;;;;;74.30;31.20;;;11.00;99.90;;;;;;4977793;28;20944;-72
2022/11/15 05:43:36;;;;;;;73.20;32.17;;;11.00;99.90;;;;;;4978766;28;20208;-71
2022/11/15 05:46:04;;;;;;;70.43;33.10;;;11.00;99.90;;;;;;4978157;28;20286;-71
2022/11/15 05:48:32;;;;;;;62.80;32.40;;;11.00;99.90;;;;;;4981703;28;20600;-71
2022/11/15 05:50:59;;;;;;;72.80;33.13;;;11.00;99.90;;;;;;4979708;28;20299;-71
2022/11/15 05:53:26;;;;;;;67.97;31.97;;;11.10;99.90;;;;;;4979810;28;20230;-71
2022/11/15 05:55:56;;;;;;;70.73;32.63;;;11.00;99.90;;;;;;4982175;28;20708;-71
2022/11/15 05:58:23;;;;;;;67.97;32.13;;;11.10;99.90;;;;;;4980709;28;20663;-71
2022/11/15 06:00:50;;;;;;;63.73;30.90;;;11.10;99.90;;;;;;4978267;28;20298;-70
2022/11/15 06:03:16;;;;;;;63.60;30.70;;;11.10;99.90;;;;;;4975076;28;20204;-71
2022/11/15 06:05:43;;;;;;;70.97;32.93;;;11.10;99.90;;;;;;4979065;28;20204;-71
2022/11/15 06:08:10;;;;;;;72.73;32.47;;;11.10;99.90;;;;;;4978594;28;20206;-71
2022/11/15 06:10:37;;;;;;;64.60;31.43;;;11.10;99.90;;;;;;4973318;28;20207;-71
2022/11/15 06:13:04;;;;;;;67.60;31.97;;;11.10;99.90;;;;;;4975964;28;20553;-69
2022/11/15 06:15:34;;;;;;;69.37;31.63;;;11.20;99.90;;;;;;4970165;28;20235;-70
2022/11/15 06:18:01;;;;;;;63.63;29.90;;;11.20;99.90;;;;;;4974569;28;20208;-71
2022/11/15 06:20:29;;;;;;;69.20;32.47;;;11.20;99.90;;;;;;4979691;28;20707;-71
2022/11/15 06:23:00;;;;;;;71.90;31.73;;;11.20;99.90;;;;;;4979956;28;20227;-71
2022/11/15 06:25:29;;;;;;;65.07;31.70;;;11.20;99.90;;;;;;4982521;28;20298;-71
2022/11/15 06:27:58;;;;;;;69.63;30.23;;;11.20;99.90;;;;;;4998350;28;20311;-70
2022/11/15 06:30:25;;;;;;;73.70;31.13;;;11.30;99.90;;;;;;4978483;28;20327;-71
2022/11/15 06:33:02;;;;;;;71.90;33.40;;;11.30;99.90;;;;;;4981285;28;20215;-71
2022/11/15 06:35:29;;;;;;;74.83;32.27;;;11.30;99.90;;;;;;4962528;28;20807;-71
2022/11/15 06:38:01;;;;;;;67.57;31.43;;;11.20;99.90;;;;;;4980398;28;20766;-70
2022/11/15 06:40:28;;;;;;;68.77;33.20;;;11.30;99.90;;;;;;4971567;28;20206;-71
2022/11/15 06:42:59;;;;;;;72.33;32.37;;;11.30;99.90;;;;;;4960948;28;20207;-71
2022/11/15 06:45:26;;;;;;;75.60;33.33;;;11.30;99.90;;;;;;4958538;28;20303;-71
2022/11/15 06:47:53;;;;;;;76.97;33.63;;;11.30;99.90;;;;;;4970101;28;20221;-70
2022/11/15 06:50:19;;;;;;;72.90;33.33;;;11.30;99.90;;;;;;4974583;28;20270;-71
2022/11/15 06:52:46;;;;;;;69.30;33.40;;;11.30;99.90;;;;;;4975491;28;20310;-71
2022/11/15 06:55:13;;;;;;;70.03;31.43;;;11.30;99.90;;;;;;4960857;28;20700;-71
2022/11/15 06:57:48;;;;;;;70.13;32.67;;;11.30;99.90;;;;;;4977427;28;20212;-72
2022/11/15 07:00:16;;;;;;;66.37;30.60;;;11.40;99.90;;;;;;4972737;28;20297;-71
2022/11/15 07:02:42;;;;;;;65.17;32.03;;;11.40;99.90;;;;;;4982050;28;20320;-72
2022/11/15 07:05:10;;;;;;;67.97;31.37;;;11.40;99.90;;;;;;4972380;28;20203;-71
2022/11/15 07:07:38;;;;;;;65.77;32.73;;;11.40;99.90;;;;;;4956455;28;20226;-71
2022/11/15 07:10:06;;;;;;;71.63;32.77;;;11.40;99.90;;;;;;4967232;28;20200;-71
2022/11/15 07:12:33;;;;;;;78.40;34.37;;;11.40;99.90;;;;;;4962956;28;20210;-72
2022/11/15 07:15:03;;;;;;;72.23;33.57;;;11.40;99.90;;;;;;4976552;28;20234;-72
2022/11/15 07:17:31;;;;;;;70.17;33.57;;;11.40;99.90;;;;;;4977523;28;20344;-71
2022/11/15 07:19:58;;;;;;;70.03;32.90;;;11.40;99.90;;;;;;4973746;28;20660;-71
2022/11/15 07:22:25;;;;;;;73.87;34.20;;;11.50;99.90;;;;;;4970123;28;20768;-71
2022/11/15 07:24:51;;;;;;;71.13;33.37;;;11.50;99.90;;;;;;4978293;28;20525;-71
2022/11/15 07:27:18;;;;;;;66.47;31.00;;;11.50;99.90;;;;;;4989999;28;20229;-71
2022/11/15 07:29:45;;;;;;;71.00;33.43;;;11.50;99.90;;;;;;4980305;28;20212;-71
2022/11/15 07:32:12;;;;;;;61.10;30.47;;;11.60;99.90;;;;;;4971070;28;20311;-71
2022/11/15 07:34:38;;;;;;;66.57;30.93;;;11.60;99.90;;;;;;4970910;28;20295;-71
2022/11/15 07:37:05;;;;;;;66.60;31.50;;;11.60;99.90;;;;;;4970913;28;20239;-70
2022/11/15 07:39:32;;;;;;;69.70;31.60;;;11.60;99.90;;;;;;4978995;28;20215;-71
2022/11/15 07:44:45;;;;;;;67.67;31.07;;;11.70;99.90;;;;;;4971689;28;20298;-70
2022/11/15 07:47:11;;;;;;;66.10;30.70;;;11.70;99.90;;;;;;4975365;28;20231;-71
2022/11/15 07:49:38;;;;;;;64.67;30.10;;;11.70;99.90;;;;;;4977728;28;20315;-70
2022/11/15 07:52:05;;;;;;;63.03;29.23;;;11.70;99.90;;;;;;4977751;28;20691;-71
2022/11/15 07:54:32;;;;;;;65.53;32.27;;;11.80;99.90;;;;;;4957804;28;20216;-71
2022/11/15 07:56:58;;;;;;;75.87;33.03;;;11.80;99.90;;;;;;4969840;28;20688;-70
2022/11/15 07:59:31;;;;;;;68.30;32.87;;;11.80;99.90;;;;;;4951180;28;20862;-71
2022/11/15 08:01:58;;;;;;;65.07;31.90;;;11.70;99.90;;;;;;4973098;28;20207;-70
2022/11/15 08:04:25;;;;;;;70.50;32.17;;;11.80;99.90;;;;;;4974317;28;20271;-71
2022/11/15 08:06:52;;;;;;;69.20;32.33;;;11.70;99.90;;;;;;4972602;28;20215;-72
2022/11/15 08:09:19;;;;;;;69.47;32.23;;;11.70;99.90;;;;;;4977597;28;20203;-71
2022/11/15 08:11:45;;;;;;;69.27;31.63;;;11.70;99.90;;;;;;4973326;28;20594;-70
2022/11/15 08:14:12;;;;;;;60.13;28.57;;;11.80;99.90;;;;;;4975942;28;20300;-70
2022/11/15 08:16:39;;;;;;;69.27;32.03;;;11.80;99.90;;;;;;4976791;28;20254;-70
2022/11/15 08:19:06;;;;;;;66.07;32.13;;;11.80;99.90;;;;;;4975682;28;20287;-69
2022/11/15 08:21:32;;;;;;;69.00;32.60;;;11.80;99.90;;;;;;4982316;28;20314;-71
2022/11/15 08:23:59;;;;;;;62.87;30.47;;;11.80;99.90;;;;;;4961903;28;20204;-71
2022/11/15 08:26:28;;;;;;;62.23;30.80;;;11.80;99.90;;;;;;4979725;28;20290;-71
2022/11/15 08:28:55;;;;;;;66.80;30.97;;;11.80;99.90;;;;;;4970453;28;20199;-71
2022/11/15 08:31:22;;;;;;;60.27;30.93;;;11.90;99.90;;;;;;4971594;28;20299;-70
2022/11/15 08:33:49;;;;;;;58.23;30.07;;;11.90;99.90;;;;;;4972470;28;20275;-70
2022/11/15 08:36:16;;;;;;;67.00;30.60;;;11.90;99.90;;;;;;4975614;28;20232;-71
2022/11/15 08:38:43;;;;;;;61.00;30.87;;;12.00;99.90;;;;;;4969826;28;20295;-70
2022/11/15 08:41:16;;;;;;;62.43;29.57;;;12.00;99.90;;;;;;4976612;28;20224;-70
2022/11/15 08:43:43;;;;;;;58.67;28.93;;;12.10;99.90;;;;;;4973878;28;20291;-71
2022/11/15 08:46:13;;;;;;;61.40;27.57;;;12.10;99.90;;;;;;4974338;28;20822;-71
2022/11/15 08:48:40;;;;;;;55.57;27.97;;;12.20;99.90;;;;;;4968694;28;20646;-71
2022/11/15 08:51:07;;;;;;;55.73;27.00;;;12.20;99.90;;;;;;4974524;28;20286;-72
2022/11/15 08:53:34;;;;;;;49.93;26.63;;;12.20;99.90;;;;;;4958914;28;20202;-71
2022/11/15 08:56:01;;;;;;;50.57;26.63;;;12.20;99.90;;;;;;4976143;28;20747;-71
2022/11/15 08:58:28;;;;;;;49.60;26.47;;;12.20;99.90;;;;;;4956499;28;20242;-72
2022/11/15 09:00:55;;;;;;;47.83;25.93;;;12.20;99.90;;;;;;4976041;28;20215;-72
2022/11/15 09:03:22;;;;;;;43.10;23.50;;;12.20;99.90;;;;;;4973985;28;20630;-72
2022/11/15 09:05:54;;;;;;;43.43;24.10;;;12.30;99.90;;;;;;4958882;28;20251;-71
2022/11/15 09:08:21;;;;;;;43.77;23.90;;;12.30;99.90;;;;;;4971509;28;20330;-72
2022/11/15 09:11:10;;;;;;;36.37;22.10;;;12.10;99.90;;;;;;4954779;28;20215;-71
2022/11/15 09:13:37;;;;;;;41.43;21.90;;;12.20;99.90;;;;;;4977855;28;20204;-70
2022/11/15 09:16:04;;;;;;;37.47;21.93;;;12.20;99.90;;;;;;4976097;28;20218;-70
2022/11/15 09:18:31;;;;;;;39.70;20.83;;;12.30;99.90;;;;;;4979581;28;20663;-71
2022/11/15 09:20:59;;;;;;;42.17;21.53;;;12.30;99.90;;;;;;4972284;28;20226;-71
2022/11/15 09:23:26;;;;;;;38.60;20.77;;;12.20;99.90;;;;;;4978721;28;20195;-72
2022/11/15 09:26:02;;;;;;;34.53;19.70;;;12.30;99.90;;;;;;4971199;28;20249;-72
2022/11/15 09:28:30;;;;;;;37.03;20.30;;;12.30;99.90;;;;;;4973209;28;20684;-71
2022/11/15 09:31:01;;;;;;;34.70;19.20;;;12.30;99.90;;;;;;4976738;28;20204;-71
2022/11/15 09:33:28;;;;;;;30.27;17.30;;;12.40;99.90;;;;;;4975392;28;20206;-72
2022/11/15 09:36:07;;;;;;;32.70;19.37;;;12.30;99.90;;;;;;4974701;28;20227;-74
2022/11/15 09:38:34;;;;;;;32.03;19.10;;;12.40;99.90;;;;;;4971178;28;20238;-71
2022/11/15 09:41:25;;;;;;;32.37;18.63;;;12.40;99.90;;;;;;4973377;28;20210;-71
2022/11/15 09:44:07;;;;;;;28.37;17.67;;;12.50;99.90;;;;;;4977004;28;20562;-71
2022/11/15 09:47:00;;;;;;;30.67;18.20;;;12.50;99.90;;;;;;4969600;28;20287;-70
2022/11/15 09:49:29;;;;;;;30.87;18.53;;;12.60;99.90;;;;;;4977677;28;20306;-72
2022/11/15 09:51:57;;;;;;;31.37;17.33;;;12.70;99.90;;;;;;4972137;28;20664;-71
2022/11/15 09:54:34;;;;;;;28.10;17.40;;;12.70;99.90;;;;;;4972795;28;20255;-70
2022/11/15 09:57:32;;;;;;;27.87;16.07;;;12.80;99.90;;;;;;4970216;28;20783;-71
2022/11/15 10:00:30;;;;;;;26.60;15.33;;;12.90;99.90;;;;;;4970800;28;20239;-71
2022/11/15 10:03:23;;;;;;;22.37;14.80;;;12.90;99.90;;;;;;4970246;28;20566;-71
2022/11/15 10:05:54;;;;;;;26.47;16.63;;;12.90;99.90;;;;;;4971987;28;20306;-71
2022/11/15 10:08:50;;;;;;;23.83;14.80;;;12.90;99.90;;;;;;4970768;28;20262;-70
2022/11/15 10:11:25;;;;;;;20.63;14.27;;;12.80;99.90;;;;;;4950978;28;20681;-71
2022/11/15 10:14:15;;;;;;;20.17;12.83;;;12.80;99.90;;;;;;4988555;28;20246;-72
2022/11/15 10:16:44;;;;;;;19.87;12.60;;;12.70;99.90;;;;;;4976703;28;20303;-72
2022/11/15 10:19:25;;;;;;;21.00;13.33;;;12.60;99.90;;;;;;4977530;28;20577;-70
2022/11/15 10:22:14;;;;;;;19.73;12.40;;;12.60;99.90;;;;;;4976110;28;20307;-71
2022/11/15 10:24:43;;;;;;;17.53;11.90;;;12.60;99.90;;;;;;4973368;28;20366;-71
2022/11/15 10:27:13;;;;;;;17.67;11.20;;;12.60;99.90;;;;;;4977496;28;20203;-72
2022/11/15 10:29:50;;;;;;;18.43;11.83;;;12.60;99.90;;;;;;4976057;28;20200;-72
2022/11/15 10:32:19;;;;;;;18.73;11.97;;;12.70;99.90;;;;;;4973503;28;20287;-72
2022/11/15 10:34:48;;;;;;;19.33;11.27;;;12.80;99.90;;;;;;4978437;28;20290;-70
2022/11/15 10:37:28;;;;;;;17.43;10.90;;;12.80;99.90;;;;;;4971050;28;20238;-71
2022/11/15 10:40:06;;;;;;;15.33;10.40;;;12.80;99.90;;;;;;4975146;28;20208;-72
2022/11/15 10:42:33;;;;;;;17.80;10.00;;;12.80;99.90;;;;;;4976447;28;20298;-71
2022/11/15 10:45:00;;;;;;;14.83;9.93;;;12.90;99.90;;;;;;4975120;28;20757;-71
2022/11/15 10:47:30;;;;;;;11.33;8.43;;;12.90;99.90;;;;;;4967305;28;20274;-71
2022/11/15 10:50:26;;;;;;;14.63;9.63;;;12.90;99.90;;;;;;4975928;28;20278;-71
2022/11/15 10:52:54;;;;;;;13.67;9.43;;;12.90;99.90;;;;;;4979485;28;20679;-71
2022/11/15 10:55:26;;;;;;;12.73;9.60;;;12.90;99.90;;;;;;4980758;28;20755;-71
2022/11/15 10:58:00;;;;;;;18.23;9.83;;;12.90;99.90;;;;;;4963496;28;20702;-71
2022/11/15 11:00:39;;;;;;;12.97;9.03;;;12.90;99.90;;;;;;4973142;28;20290;-70
2022/11/15 11:03:27;;;;;;;13.67;8.23;;;13.00;99.90;;;;;;4974626;28;20203;-71
2022/11/15 11:06:16;;;;;;;11.90;7.97;;;13.10;99.90;;;;;;4970484;28;20716;-71
2022/11/15 11:09:01;;;;;;;11.73;8.27;;;13.00;99.90;;;;;;4973600;28;20219;-71
2022/11/15 11:11:57;;;;;;;11.27;8.30;;;13.00;99.90;;;;;;4978327;28;20207;-71
2022/11/15 11:14:33;;;;;;;9.73;7.63;;;13.10;99.90;;;;;;4950979;28;20196;-70
2022/11/15 11:17:11;;;;;;;11.37;7.47;;;13.10;99.90;;;;;;4974051;28;20601;-71
2022/11/15 11:20:12;;;;;;;8.70;6.50;;;13.20;99.90;;;;;;4971384;28;20266;-71
2022/11/15 11:22:50;;;;;;;9.80;7.17;;;13.10;99.90;;;;;;4968645;28;20309;-71
2022/11/15 11:25:42;;;;;;;8.87;6.63;;;13.20;99.90;;;;;;4969055;28;20531;-72
2022/11/15 11:28:25;;;;;;;7.90;6.00;;;13.10;99.90;;;;;;4977924;28;20656;-71
2022/11/15 11:30:55;;;;;;;7.87;5.13;;;13.20;99.90;;;;;;4976752;28;20211;-70
2022/11/15 11:33:28;;;;;;;5.57;4.80;;;13.10;99.90;;;;;;4978770;28;20660;-74
2022/11/15 11:36:11;;;;;;;6.70;4.60;;;13.10;99.90;;;;;;4977217;28;20685;-70
2022/11/15 11:38:57;;;;;;;8.90;5.90;;;13.00;99.90;;;;;;4977245;28;20286;-72
2022/11/15 11:41:38;;;;;;;10.20;5.30;;;13.00;99.90;;;;;;4975353;28;20207;-71
2022/11/15 11:44:25;;;;;;;11.07;5.17;;;13.00;99.90;;;;;;4979589;28;20417;-72
2022/11/15 11:47:14;;;;;;;5.83;4.70;;;13.00;99.90;;;;;;4976508;28;20623;-70
2022/11/15 11:49:53;;;;;;;6.60;4.80;;;13.00;99.90;;;;;;4995496;28;20215;-72
2022/11/15 11:52:52;;;;;;;6.07;4.80;;;13.00;99.90;;;;;;4978078;28;20683;-72
2022/11/15 11:55:29;;;;;;;6.23;4.33;;;13.00;99.90;;;;;;4976918;28;20215;-71
2022/11/15 11:58:20;;;;;;;7.57;4.20;;;13.00;99.90;;;;;;4977598;28;20234;-72
2022/11/15 12:01:09;;;;;;;9.50;3.97;;;13.00;99.90;;;;;;4977739;28;20274;-71
2022/11/15 12:04:11;;;;;;;5.43;3.67;;;12.90;99.90;;;;;;4979807;28;20217;-73
2022/11/15 12:06:42;;;;;;;5.40;3.43;;;12.90;99.90;;;;;;4964189;28;20677;-72
2022/11/15 12:09:49;;;;;;;6.50;3.50;;;12.90;99.90;;;;;;4979488;28;20269;-71
2022/11/15 12:12:18;;;;;;;5.27;3.23;;;12.80;99.90;;;;;;4943860;28;20258;-71
2022/11/15 12:14:55;;;;;;;4.70;2.97;;;12.90;99.90;;;;;;4975779;28;20282;-71
2022/11/15 12:17:31;;;;;;;4.23;2.93;;;12.90;99.90;;;;;;4979298;28;20317;-71
2022/11/15 12:20:22;;;;;;;7.53;2.70;;;12.90;99.90;;;;;;4978008;28;20218;-72
2022/11/15 12:22:58;;;;;;;5.10;2.73;;;12.90;99.90;;;;;;4975240;28;20255;-71
2022/11/15 12:25:49;;;;;;;2.83;2.37;;;12.80;99.90;;;;;;4960140;28;20290;-72
2022/11/15 12:28:51;;;;;;;3.23;2.50;;;12.80;99.90;;;;;;4978892;28;20246;-71
2022/11/15 12:31:48;;;;;;;3.30;2.40;;;12.90;99.90;;;;;;4970644;28;20204;-72
2022/11/15 12:34:21;;;;;;;6.47;2.30;;;12.80;99.90;;;;;;4973542;28;20211;-73
2022/11/15 12:36:50;;;;;;;5.47;2.40;;;12.80;99.90;;;;;;4976451;28;20239;-73
2022/11/15 12:39:18;;;;;;;4.53;2.60;;;12.80;99.90;;;;;;4972797;28;20680;-73
2022/11/15 12:41:54;;;;;;;3.70;2.67;;;12.80;99.90;;;;;;4972336;28;20204;-72
2022/11/15 12:44:30;;;;;;;5.23;2.83;;;12.90;99.90;;;;;;4974028;28;20195;-72
2022/11/15 12:46:57;;;;;;;7.50;3.13;;;12.90;99.90;;;;;;4975744;28;20207;-71
2022/11/15 12:49:27;;;;;;;5.37;2.87;;;12.90;99.90;;;;;;4977778;28;20204;-71
2022/11/15 12:51:57;;;;;;;5.03;3.00;;;12.90;99.90;;;;;;4952697;28;20587;-72
2022/11/15 12:54:24;;;;;;;3.40;2.10;;;12.90;99.90;;;;;;4955675;28;20210;-73
2022/11/15 12:57:03;;;;;;;2.63;2.10;;;13.00;99.90;;;;;;4938413;28;20263;-72
2022/11/15 12:59:48;;;;;;;6.07;2.20;;;12.90;99.90;;;;;;4968600;28;20545;-72
2022/11/15 13:02:43;;;;;;;5.57;1.70;;;12.90;99.90;;;;;;4954395;28;20772;-71
2022/11/15 13:05:34;;;;;;;2.80;1.83;;;13.00;99.90;;;;;;4953850;28;20291;-72
2022/11/15 13:08:03;;;;;;;6.90;1.63;;;13.00;99.90;;;;;;4951275;28;20237;-72
2022/11/15 13:10:32;;;;;;;3.57;1.50;;;12.90;99.90;;;;;;4959429;28;20267;-72
2022/11/15 13:13:08;;;;;;;5.27;1.80;;;12.90;99.90;;;;;;4957681;28;20208;-73
2022/11/15 13:15:34;;;;;;;4.50;1.70;;;12.90;99.90;;;;;;4952395;28;20272;-72
2022/11/15 13:18:23;;;;;;;6.90;2.53;;;12.90;99.90;;;;;;4956950;28;20286;-72